Time;durP1;ratioP1;P1;durP2;ratioP2;P2;SDS_P1;SDS_P2;PMS_P1;PMS_P2;Temp;Humidity;BMP_temperature;BMP_pressure;BME280_temperature;BME280_humidity;BME280_pressure;Samples;Min_cycle;Max_cycle;Signal;HPM_P1;HPM_P2
2023/10/02 00:01:58;;;;;;;195.87;185.77;;;;;;;17.08;100.00;101940.84;4967017;28;20466;-40
2023/10/02 00:04:26;;;;;;;186.90;177.23;;;;;;;17.09;100.00;101939.81;4959121;28;21048;-41
2023/10/02 00:09:49;;;;;;;178.40;169.40;;;;;;;17.10;100.00;101930.72;4958140;28;20471;-41
2023/10/02 00:12:19;;;;;;;189.20;179.13;;;;;;;17.10;100.00;101928.00;4959095;28;20439;-40
2023/10/02 00:14:48;;;;;;;191.53;181.73;;;;;;;17.10;100.00;101928.00;4958967;28;20923;-39
2023/10/02 00:17:18;;;;;;;178.43;169.30;;;;;;;17.11;100.00;101918.88;4958974;28;20475;-40
2023/10/02 00:19:47;;;;;;;181.63;170.67;;;;;;;17.12;100.00;101920.53;4958364;28;20902;-42
2023/10/02 00:25:01;;;;;;;181.97;171.27;;;;;;;17.13;100.00;101914.13;4957179;28;20522;-39
2023/10/02 00:27:29;;;;;;;177.00;167.63;;;;;;;17.13;100.00;101914.13;4965574;28;20439;-40
2023/10/02 00:29:58;;;;;;;181.00;171.43;;;;;;;17.14;100.00;101910.34;4958493;28;20879;-39
2023/10/02 00:32:29;;;;;;;180.53;170.30;;;;;;;17.14;100.00;101918.44;4958413;28;20446;-43
2023/10/02 00:34:58;;;;;;;184.57;174.53;;;;;;;17.13;100.00;101910.59;4959203;28;20449;-43
2023/10/02 00:37:43;;;;;;;182.67;172.57;;;;;;;17.14;100.00;101921.13;4958668;28;20866;-40
2023/10/02 00:40:20;;;;;;;187.80;177.27;;;;;;;17.14;100.00;101913.06;4955462;28;20463;-41
2023/10/02 00:42:49;;;;;;;180.20;169.57;;;;;;;17.14;100.00;101912.25;4955340;28;20815;-40
2023/10/02 00:45:18;;;;;;;173.93;165.77;;;;;;;17.13;100.00;101924.91;4956085;28;20447;-44
2023/10/02 00:47:46;;;;;;;174.87;166.40;;;;;;;17.13;100.00;101911.41;4955791;28;20867;-40
2023/10/02 00:50:19;;;;;;;170.50;162.83;;;;;;;17.12;100.00;101909.75;4955193;28;20460;-39
2023/10/02 00:52:55;;;;;;;179.57;171.20;;;;;;;17.12;100.00;101906.22;4955314;28;20459;-43
2023/10/02 00:55:25;;;;;;;183.83;175.20;;;;;;;17.12;100.00;101911.63;4960758;28;20442;-39
2023/10/02 00:57:56;;;;;;;175.57;167.87;;;;;;;17.11;100.00;101907.28;4957707;28;20502;-39
2023/10/02 01:00:35;;;;;;;173.77;166.13;;;;;;;17.11;100.00;101900.00;4955126;28;20502;-39
2023/10/02 01:03:08;;;;;;;175.00;166.40;;;;;;;17.11;100.00;101899.19;4971047;28;20516;-39
2023/10/02 01:05:47;;;;;;;174.43;165.70;;;;;;;17.11;100.00;101901.91;4962076;28;20439;-43
2023/10/02 01:08:24;;;;;;;173.13;164.13;;;;;;;17.10;100.00;101906.44;4974624;28;20890;-40
2023/10/02 01:10:58;;;;;;;175.67;167.03;;;;;;;17.12;100.00;101906.22;4957813;28;20552;-40
2023/10/02 01:13:30;;;;;;;175.73;166.13;;;;;;;17.13;100.00;101905.19;4960448;28;20978;-40
2023/10/02 01:15:59;;;;;;;172.13;164.13;;;;;;;17.12;100.00;101904.38;4956658;28;20935;-39
2023/10/02 01:18:28;;;;;;;171.63;163.40;;;;;;;17.13;100.00;101897.94;4954701;28;20483;-42
2023/10/02 01:20:59;;;;;;;171.87;163.50;;;;;;;17.15;100.00;101905.81;4963006;28;20522;-39
2023/10/02 01:23:31;;;;;;;178.00;169.60;;;;;;;17.16;100.00;101904.78;4955214;28;20470;-40
2023/10/02 01:26:01;;;;;;;176.67;169.63;;;;;;;17.16;100.00;101902.06;4955483;28;20969;-39
2023/10/02 01:28:32;;;;;;;168.77;161.30;;;;;;;17.17;100.00;101907.25;4960166;28;20467;-40
2023/10/02 01:31:31;;;;;;;169.47;162.57;;;;;;;17.19;100.00;101900.81;4955002;28;20439;-40
2023/10/02 01:33:48;;;;;;;173.53;165.43;;;;;;;17.18;100.00;101908.06;4962208;28;20461;-40
2023/10/02 01:36:16;;;;;;;172.50;165.07;;;;;;;17.20;100.00;101910.56;4954892;28;20439;-39
2023/10/02 01:38:46;;;;;;;172.77;165.10;;;;;;;17.20;100.00;101899.78;4954390;28;20933;-39
2023/10/02 01:41:15;;;;;;;174.40;166.60;;;;;;;17.22;100.00;101900.41;4973949;28;20481;-41
2023/10/02 01:43:45;;;;;;;165.33;158.23;;;;;;;17.21;100.00;101902.25;4958452;28;20839;-39
2023/10/02 01:46:17;;;;;;;172.87;165.07;;;;;;;17.20;100.00;101907.88;4954695;28;21114;-39
2023/10/02 01:48:48;;;;;;;174.03;165.80;;;;;;;17.19;100.00;101898.97;4954129;28;20487;-41
2023/10/02 01:51:25;;;;;;;171.97;164.27;;;;;;;17.19;100.00;101898.97;4973666;28;20449;-40
2023/10/02 01:53:57;;;;;;;171.47;163.83;;;;;;;17.20;100.00;101897.09;4973832;28;20960;-39
2023/10/02 01:56:29;;;;;;;175.27;166.10;;;;;;;17.20;100.00;101902.50;4973910;28;20948;-41
2023/10/02 01:59:08;;;;;;;175.70;167.40;;;;;;;17.18;100.00;101905.38;4963946;28;20547;-40
2023/10/02 02:01:46;;;;;;;174.87;166.70;;;;;;;17.19;100.00;101898.97;4954202;28;20443;-40
2023/10/02 02:04:15;;;;;;;175.63;167.30;;;;;;;17.21;100.00;101899.56;4965788;28;20474;-40
2023/10/02 02:06:52;;;;;;;174.53;166.37;;;;;;;17.19;100.00;101904.34;4973719;28;20461;-40
2023/10/02 02:09:23;;;;;;;181.40;170.97;;;;;;;17.19;100.00;101900.81;4954071;28;20474;-41
2023/10/02 02:12:06;;;;;;;193.10;182.97;;;;;;;17.17;100.00;101899.16;4953938;28;20455;-39
2023/10/02 02:14:40;;;;;;;182.50;173.40;;;;;;;17.17;100.00;101897.53;4953828;28;20971;-39
2023/10/02 02:17:11;;;;;;;193.83;184.27;;;;;;;17.19;100.00;101898.13;4954343;28;20443;-39
2023/10/02 02:19:47;;;;;;;181.83;173.20;;;;;;;17.15;100.00;101898.53;4953833;28;20476;-39
2023/10/02 02:22:17;;;;;;;185.33;176.33;;;;;;;17.17;100.00;101898.34;4953650;28;21116;-39
2023/10/02 02:24:44;;;;;;;190.33;180.53;;;;;;;17.14;100.00;101896.88;4953954;28;20977;-39
2023/10/02 02:27:14;;;;;;;185.93;176.00;;;;;;;17.17;100.00;101884.03;4960985;28;20435;-40
2023/10/02 02:29:43;;;;;;;182.00;171.90;;;;;;;17.16;100.00;101883.22;4965259;28;20466;-40
2023/10/02 02:32:10;;;;;;;183.07;173.37;;;;;;;17.15;100.00;101876.97;4962148;28;20442;-40
2023/10/02 02:34:38;;;;;;;181.77;172.93;;;;;;;17.14;100.00;101877.22;4954095;28;20444;-42
2023/10/02 02:37:06;;;;;;;194.87;184.37;;;;;;;17.14;100.00;101880.72;4953744;28;20448;-40
2023/10/02 02:39:37;;;;;;;191.23;179.90;;;;;;;17.14;100.00;101877.22;4961051;28;20468;-39
2023/10/02 02:42:18;;;;;;;188.10;177.70;;;;;;;17.13;100.00;101879.06;4953574;28;20439;-40
2023/10/02 02:44:49;;;;;;;188.23;177.93;;;;;;;17.13;100.00;101878.25;4953670;28;20450;-39
2023/10/02 02:47:18;;;;;;;186.13;175.33;;;;;;;17.15;100.00;101876.16;4953882;28;20439;-41
2023/10/02 02:49:50;;;;;;;191.03;180.53;;;;;;;17.14;100.00;101875.31;4953152;28;20588;-40
2023/10/02 02:52:19;;;;;;;195.03;184.23;;;;;;;17.13;100.00;101870.16;4965250;28;20850;-41
2023/10/02 02:54:48;;;;;;;198.77;187.47;;;;;;;17.13;100.00;101864.75;4957426;28;20863;-42
2023/10/02 02:57:25;;;;;;;192.10;180.27;;;;;;;17.13;100.00;101860.22;4965037;28;20446;-43
2023/10/02 03:00:29;;;;;;;197.50;184.60;;;;;;;17.13;100.00;101860.22;4971933;28;20470;-41
2023/10/02 03:03:00;;;;;;;187.93;176.20;;;;;;;17.15;100.00;101876.16;4971720;28;20469;-44
2023/10/02 03:05:37;;;;;;;193.53;182.37;;;;;;;17.13;100.00;101868.28;4959946;28;20942;-41
2023/10/02 03:08:06;;;;;;;193.03;180.83;;;;;;;17.13;100.00;101867.47;4953246;28;20451;-43
2023/10/02 03:10:36;;;;;;;197.53;184.50;;;;;;;17.12;100.00;101877.41;4958381;28;20459;-40
2023/10/02 03:13:08;;;;;;;194.77;182.67;;;;;;;17.10;100.00;101884.88;4970821;28;20455;-42
2023/10/02 03:15:46;;;;;;;189.87;179.10;;;;;;;17.11;100.00;101881.13;4953196;28;20439;-42
2023/10/02 03:18:30;;;;;;;186.50;175.93;;;;;;;17.12;100.00;101868.50;4952601;28;20447;-47
2023/10/02 03:21:06;;;;;;;193.30;181.83;;;;;;;17.12;100.00;101868.50;4952975;28;20443;-44
2023/10/02 03:23:34;;;;;;;199.87;187.90;;;;;;;17.11;100.00;101862.25;4958667;28;20543;-41
2023/10/02 03:26:07;;;;;;;202.93;190.33;;;;;;;17.10;100.00;101870.56;4956122;28;20580;-42
2023/10/02 03:28:35;;;;;;;206.83;193.80;;;;;;;17.09;100.00;101858.97;4958337;28;20462;-47
2023/10/02 03:31:04;;;;;;;192.20;180.50;;;;;;;17.08;100.00;101857.28;4953043;28;20446;-42
2023/10/02 03:33:32;;;;;;;199.83;187.30;;;;;;;17.08;100.00;101848.41;4952802;28;20491;-42
2023/10/02 03:36:08;;;;;;;194.60;183.20;;;;;;;17.10;100.00;101852.53;4952519;28;20450;-42
2023/10/02 03:38:41;;;;;;;190.10;179.43;;;;;;;17.10;100.00;101859.78;4952651;28;20463;-42
2023/10/02 03:41:10;;;;;;;194.73;183.30;;;;;;;17.08;100.00;101843.81;4952883;28;20855;-45
2023/10/02 03:43:43;;;;;;;199.07;185.87;;;;;;;17.08;100.00;101854.59;4960662;28;20459;-41
2023/10/02 03:46:16;;;;;;;199.63;186.63;;;;;;;17.06;100.00;101856.69;4960562;28;20462;-45
2023/10/02 03:48:51;;;;;;;189.97;178.60;;;;;;;17.07;100.00;101850.28;4952671;28;20859;-43
2023/10/02 03:51:36;;;;;;;183.87;174.17;;;;;;;17.08;100.00;101846.53;4964531;28;21051;-42
2023/10/02 03:54:21;;;;;;;188.93;178.37;;;;;;;17.07;100.00;101858.38;4971999;28;20505;-42
2023/10/02 03:56:50;;;;;;;199.43;187.40;;;;;;;17.06;100.00;101855.88;4972379;28;20449;-42
2023/10/02 03:59:21;;;;;;;190.77;179.60;;;;;;;17.07;100.00;101852.13;4968310;28;20479;-42
2023/10/02 04:01:51;;;;;;;195.50;184.07;;;;;;;17.06;100.00;101859.38;4952550;28;21017;-42
2023/10/02 04:04:23;;;;;;;204.53;192.90;;;;;;;17.04;100.00;101849.88;4952456;28;20463;-43
2023/10/02 04:06:53;;;;;;;192.30;182.30;;;;;;;17.04;100.00;101849.88;4952858;28;20439;-40
2023/10/02 04:09:23;;;;;;;191.47;180.70;;;;;;;17.03;100.00;101849.03;4952300;28;20464;-41
2023/10/02 04:11:51;;;;;;;199.57;187.63;;;;;;;17.03;100.00;101856.28;4952382;28;21167;-40
2023/10/02 04:14:31;;;;;;;196.00;184.53;;;;;;;17.02;100.00;101866.22;4956039;28;20491;-42
2023/10/02 04:17:14;;;;;;;202.27;189.73;;;;;;;17.01;100.00;101851.13;4956225;28;20470;-41
2023/10/02 04:19:48;;;;;;;205.27;192.63;;;;;;;17.02;100.00;101833.88;4955642;28;20463;-41
2023/10/02 04:22:19;;;;;;;196.93;184.77;;;;;;;17.01;100.00;101840.34;4963979;28;20446;-42
2023/10/02 04:24:58;;;;;;;202.97;190.73;;;;;;;17.02;100.00;101843.88;4956503;28;20438;-41
2023/10/02 04:27:28;;;;;;;198.03;187.50;;;;;;;17.02;100.00;101836.59;4956429;28;20443;-40
2023/10/02 04:30:23;;;;;;;200.13;189.20;;;;;;;17.04;100.00;101836.38;4954736;28;20800;-41
2023/10/02 04:32:51;;;;;;;193.70;183.10;;;;;;;17.03;100.00;101829.34;4955779;28;20966;-43
2023/10/02 04:38:09;;;;;;;197.60;186.87;;;;;;;17.04;100.00;101831.84;4959033;28;20501;-42
2023/10/02 04:40:44;;;;;;;195.23;184.43;;;;;;;17.05;100.00;101819.19;4969207;28;20474;-42
2023/10/02 04:46:01;;;;;;;204.00;193.07;;;;;;;17.04;100.00;101823.75;4955716;28;20535;-41
2023/10/02 04:48:38;;;;;;;198.03;187.20;;;;;;;17.05;100.00;101825.38;4955395;28;20443;-46
2023/10/02 04:51:08;;;;;;;199.80;189.60;;;;;;;17.05;100.00;101820.00;4955705;28;20877;-42
2023/10/02 04:53:36;;;;;;;200.67;189.60;;;;;;;17.04;100.00;101831.84;4955618;28;20474;-44
2023/10/02 04:56:21;;;;;;;201.00;190.27;;;;;;;17.05;100.00;101833.47;4955479;28;20534;-40
2023/10/02 04:58:50;;;;;;;204.13;193.13;;;;;;;17.05;100.00;101827.28;4955101;28;20474;-42
2023/10/02 05:01:28;;;;;;;217.73;205.43;;;;;;;17.04;100.00;101831.00;4955281;28;21013;-42
2023/10/02 05:04:02;;;;;;;208.50;196.80;;;;;;;17.03;100.00;101838.25;4955443;28;20816;-44
2023/10/02 05:06:52;;;;;;;201.83;191.40;;;;;;;17.03;100.00;101835.56;4968088;28;20468;-41
2023/10/02 05:09:25;;;;;;;194.17;183.77;;;;;;;17.02;100.00;101841.97;4955134;28;20819;-42
2023/10/02 05:11:55;;;;;;;204.33;193.00;;;;;;;17.00;100.00;101838.69;4955378;28;20440;-44
2023/10/02 05:14:27;;;;;;;204.50;192.70;;;;;;;17.00;100.00;101840.53;4955339;28;20459;-45
2023/10/02 05:17:16;;;;;;;211.20;197.50;;;;;;;16.99;100.00;101841.59;4955251;28;20538;-42
2023/10/02 05:20:01;;;;;;;206.73;195.30;;;;;;;16.99;100.00;101836.22;4960821;28;20482;-41
2023/10/02 05:22:31;;;;;;;208.03;196.10;;;;;;;17.00;100.00;101840.53;4955104;28;20490;-43
2023/10/02 05:25:04;;;;;;;201.20;189.63;;;;;;;17.00;100.00;101837.84;4954061;28;21000;-40
2023/10/02 05:27:33;;;;;;;211.83;200.33;;;;;;;17.00;100.00;101833.28;4955662;28;20443;-40
2023/10/02 05:30:05;;;;;;;198.77;188.17;;;;;;;17.00;100.00;101830.59;4954429;28;20462;-42
2023/10/02 05:32:35;;;;;;;207.67;196.67;;;;;;;17.01;100.00;101832.25;4954567;28;20443;-43
2023/10/02 05:35:06;;;;;;;205.70;194.47;;;;;;;17.01;100.00;101834.97;4954901;28;20947;-42
2023/10/02 05:37:39;;;;;;;196.53;185.33;;;;;;;17.02;100.00;101833.88;4955047;28;20451;-40
2023/10/02 05:43:09;;;;;;;198.17;186.50;;;;;;;17.03;100.00;101829.34;4954681;28;20470;-43
2023/10/02 05:45:39;;;;;;;199.17;188.67;;;;;;;17.03;100.00;101832.88;4967553;28;20439;-40
2023/10/02 05:48:08;;;;;;;202.93;190.63;;;;;;;17.04;100.00;101831.84;4956830;28;20785;-42
2023/10/02 05:50:40;;;;;;;209.93;196.83;;;;;;;17.04;100.00;101839.09;4954081;28;20991;-43
2023/10/02 05:53:09;;;;;;;197.77;187.70;;;;;;;17.04;100.00;101831.84;4954131;28;21030;-42
2023/10/02 05:55:56;;;;;;;208.77;197.00;;;;;;;17.05;100.00;101832.66;4954792;28;20470;-42
2023/10/02 05:58:31;;;;;;;200.10;189.00;;;;;;;17.04;100.00;101825.59;4954015;28;20436;-42
2023/10/02 06:01:02;;;;;;;197.00;185.30;;;;;;;17.05;100.00;101830.78;4954358;28;20505;-40
2023/10/02 06:03:34;;;;;;;203.23;191.27;;;;;;;17.04;100.00;101823.75;4969541;28;20474;-42
2023/10/02 06:06:21;;;;;;;198.20;186.60;;;;;;;17.08;100.00;101826.84;4954105;28;20463;-41
2023/10/02 06:08:50;;;;;;;196.30;184.50;;;;;;;17.09;100.00;101826.63;4954114;28;20467;-40
2023/10/02 06:11:31;;;;;;;208.53;196.43;;;;;;;17.11;100.00;101837.22;4953978;28;20467;-43
2023/10/02 06:14:10;;;;;;;196.30;186.00;;;;;;;17.13;100.00;101827.03;4954144;28;20854;-41
2023/10/02 06:16:40;;;;;;;192.90;182.33;;;;;;;17.19;100.00;101828.03;4967406;28;20528;-42
2023/10/02 06:19:13;;;;;;;192.07;181.70;;;;;;;17.23;100.00;101827.41;4971836;28;20466;-41
2023/10/02 06:22:00;;;;;;;190.70;179.97;;;;;;;17.26;100.00;101834.25;4959145;28;20997;-41
2023/10/02 06:24:28;;;;;;;191.00;179.77;;;;;;;17.33;100.00;101848.50;4965222;28;20584;-41
2023/10/02 06:26:58;;;;;;;184.87;174.57;;;;;;;17.38;100.00;101843.31;4973492;28;20472;-42
2023/10/02 06:29:29;;;;;;;187.10;176.20;;;;;;;17.36;100.00;101848.06;4969567;28;20459;-44
2023/10/02 06:32:03;;;;;;;187.57;175.67;;;;;;;17.38;100.00;101851.41;4961497;28;20443;-40
2023/10/02 06:34:37;;;;;;;176.37;166.43;;;;;;;17.42;100.00;101858.00;4961251;28;20468;-41
2023/10/02 06:37:08;;;;;;;176.00;165.50;;;;;;;17.46;100.00;101853.84;4953384;28;20510;-40
2023/10/02 06:39:36;;;;;;;171.17;162.47;;;;;;;17.51;100.00;101848.63;4953424;28;20464;-42
2023/10/02 06:42:05;;;;;;;161.87;153.67;;;;;;;17.57;100.00;101850.50;4953346;28;20439;-42
2023/10/02 06:44:37;;;;;;;163.60;154.53;;;;;;;17.64;100.00;101845.91;4953647;28;20510;-44
2023/10/02 06:47:11;;;;;;;166.10;156.37;;;;;;;17.72;100.00;101855.59;4953541;28;20482;-42
2023/10/02 06:49:40;;;;;;;152.47;144.53;;;;;;;17.83;100.00;101844.94;4953159;28;20475;-42
2023/10/02 06:52:15;;;;;;;142.67;135.40;;;;;;;18.03;100.00;101848.34;4953447;28;20528;-43
2023/10/02 06:54:45;;;;;;;142.13;134.50;;;;;;;18.19;100.00;101850.50;4953812;28;20471;-40
2023/10/02 06:57:15;;;;;;;132.80;125.37;;;;;;;18.38;100.00;101845.16;4953467;28;20475;-43
2023/10/02 06:59:52;;;;;;;127.80;120.87;;;;;;;18.48;100.00;101840.91;4953109;28;20463;-40
2023/10/02 07:02:21;;;;;;;110.80;105.00;;;;;;;18.59;100.00;101842.06;4953151;28;20476;-45
2023/10/02 07:04:49;;;;;;;108.77;102.90;;;;;;;18.69;100.00;101845.94;4953448;28;20447;-41
2023/10/02 07:07:24;;;;;;;107.63;101.63;;;;;;;18.75;100.00;101845.06;4953314;28;20943;-42
2023/10/02 07:09:54;;;;;;;102.27;96.47;;;;;;;18.83;100.00;101843.91;4952867;28;20466;-40
2023/10/02 07:12:27;;;;;;;108.50;101.70;;;;;;;18.83;100.00;101841.22;4952667;28;20443;-41
2023/10/02 07:15:10;;;;;;;104.40;97.97;;;;;;;18.83;100.00;101849.31;4953627;28;20820;-45
2023/10/02 07:17:47;;;;;;;101.93;95.90;;;;;;;18.84;100.00;101844.75;4953072;28;20535;-43
2023/10/02 07:20:17;;;;;;;105.03;99.13;;;;;;;18.83;100.00;101846.63;4952390;28;20991;-44
2023/10/02 07:22:47;;;;;;;103.13;96.63;;;;;;;18.86;100.00;101848.03;4966455;28;20549;-42
2023/10/02 07:25:20;;;;;;;100.73;94.57;;;;;;;18.98;100.00;101846.25;4972209;28;20439;-41
2023/10/02 07:27:49;;;;;;;98.53;91.80;;;;;;;19.08;100.00;101844.69;4970898;28;20537;-42
2023/10/02 07:30:26;;;;;;;89.53;84.13;;;;;;;19.13;100.00;101847.53;4971701;28;20539;-42
2023/10/02 07:33:02;;;;;;;91.87;86.23;;;;;;;19.23;100.00;101844.28;4972166;28;21016;-42
2023/10/02 07:35:31;;;;;;;85.93;80.63;;;;;;;19.38;100.00;101830.38;4964555;28;20488;-47
2023/10/02 07:38:00;;;;;;;84.07;78.70;;;;;;;19.72;100.00;101835.94;4972434;28;20434;-39
2023/10/02 07:40:46;;;;;;;73.17;68.57;;;;;;;20.02;100.00;101833.19;4971474;28;20470;-47
2023/10/02 07:43:16;;;;;;;73.23;68.43;;;;;;;20.27;100.00;101836.59;4962850;28;20518;-44
2023/10/02 07:45:45;;;;;;;72.00;67.47;;;;;;;20.39;100.00;101828.47;4952831;28;20439;-43
2023/10/02 07:48:19;;;;;;;77.87;72.67;;;;;;;20.40;100.00;101817.38;4954233;28;21037;-42
2023/10/02 07:50:47;;;;;;;78.33;74.00;;;;;;;20.56;100.00;101810.44;4956586;28;20443;-41
2023/10/02 07:53:17;;;;;;;76.33;71.53;;;;;;;20.70;100.00;101808.28;4964366;28;20458;-45
2023/10/02 07:55:47;;;;;;;75.17;70.47;;;;;;;20.99;100.00;101801.88;4956749;28;20443;-42
2023/10/02 07:58:19;;;;;;;66.37;61.67;;;;;;;21.11;100.00;101799.16;4955954;28;20506;-43
2023/10/02 08:00:49;;;;;;;69.80;64.90;;;;;;;21.32;100.00;101802.06;4956488;28;20523;-43
2023/10/02 08:03:31;;;;;;;75.57;70.53;;;;;;;21.34;100.00;101793.66;4956003;28;20525;-43
2023/10/02 08:06:20;;;;;;;75.77;71.03;;;;;;;21.22;100.00;101792.88;4963717;28;20787;-41
2023/10/02 08:09:35;;;;;;;75.13;70.03;;;;;;;21.04;100.00;101788.41;4969418;28;20458;-45
2023/10/02 08:11:40;;;;;;;76.23;70.80;;;;;;;21.09;100.00;101793.97;4968444;28;20799;-44
2023/10/02 08:14:34;;;;;;;75.77;70.20;;;;;;;21.16;100.00;101794.66;4973347;28;20895;-41
2023/10/02 08:16:59;;;;;;;75.03;69.80;;;;;;;21.04;100.00;101793.84;4960799;28;20529;-41
2023/10/02 08:19:28;;;;;;;76.47;71.20;;;;;;;20.86;100.00;101786.69;4955568;28;20467;-43
2023/10/02 08:21:56;;;;;;;74.97;70.23;;;;;;;20.70;100.00;101787.44;4955647;28;20471;-44
2023/10/02 08:29:53;;;;;;;73.87;69.17;;;;;;;20.67;100.00;101797.94;5199520;23;20242;-39
2023/10/02 08:32:28;;;;;;;69.27;64.27;;;;;;;20.80;100.00;101792.25;4967094;28;20849;-42
2023/10/02 08:34:57;;;;;;;71.60;66.93;;;;;;;20.95;100.00;101793.41;4966646;28;20445;-40
2023/10/02 08:37:26;;;;;;;79.10;73.70;;;;;;;21.12;100.00;101796.19;4952844;29;20447;-44
2023/10/02 08:39:53;;;;;;;71.90;67.60;;;;;;;21.27;100.00;101787.53;4922340;28;20466;-43
2023/10/02 08:42:24;;;;;;;77.80;72.70;;;;;;;21.28;100.00;101787.31;4936231;28;20485;-42
2023/10/02 08:44:58;;;;;;;79.37;74.00;;;;;;;21.29;100.00;101790.84;4967597;28;20532;-41
2023/10/02 08:52:38;;;;;;;70.40;65.70;;;;;;;21.38;100.00;101792.94;5156322;27;20287;-39
2023/10/02 08:55:33;;;;;;;75.70;70.60;;;;;;;21.38;100.00;101790.22;5125528;27;20438;-38
2023/10/02 08:58:15;;;;;;;71.60;66.87;;;;;;;21.27;100.00;101788.38;5094385;28;20451;-38
2023/10/02 09:03:48;;;;;;;68.67;64.13;;;;;;;21.45;100.00;101781.91;4959492;28;20455;-39
2023/10/02 09:06:31;;;;;;;69.27;64.63;;;;;;;21.55;100.00;101787.53;4903628;29;20458;-40
2023/10/02 09:17:13;;;;;;;69.87;65.20;;;;;;;21.71;100.00;101770.47;5150619;27;20521;-37
2023/10/02 09:19:41;;;;;;;68.07;63.37;;;;;;;21.81;100.00;101769.78;5081039;28;20808;-40
2023/10/02 09:22:15;;;;;;;64.00;59.70;;;;;;;21.78;100.00;101773.00;5095363;28;20432;-41
2023/10/02 09:24:41;;;;;;;67.27;62.57;;;;;;;21.87;100.00;101769.63;5037621;28;20580;-39
2023/10/02 09:27:23;;;;;;;68.67;63.83;;;;;;;21.81;100.00;101777.94;4968271;28;20446;-41
2023/10/02 09:30:15;;;;;;;67.43;62.70;;;;;;;21.82;100.00;101775.00;4911155;29;20870;-38
2023/10/02 09:32:47;;;;;;;66.57;61.70;;;;;;;21.75;100.00;101774.31;4909278;29;20896;-40
2023/10/02 09:38:37;;;;;;;66.97;61.97;;;;;;;21.62;100.00;101781.97;5139433;27;20607;-37
2023/10/02 09:41:14;;;;;;;61.70;57.37;;;;;;;21.64;100.00;101787.97;5081860;28;20440;-42
2023/10/02 09:43:42;;;;;;;60.57;56.27;;;;;;;21.66;100.00;101783.09;5064800;28;20836;-41
2023/10/02 09:46:16;;;;;;;61.10;56.67;;;;;;;21.77;100.00;101784.94;5092782;28;20435;-39
2023/10/02 09:48:56;;;;;;;59.60;55.60;;;;;;;22.06;100.00;101783.84;5050314;28;20831;-39
2023/10/02 09:51:37;;;;;;;58.37;54.30;;;;;;;22.22;100.00;101776.75;4971849;28;20496;-40
2023/10/02 09:54:17;;;;;;;62.03;57.60;;;;;;;22.38;100.00;101784.88;4907172;28;20448;-40
2023/10/02 10:07:09;;;;;;;60.77;56.80;;;;;;;22.34;100.00;101761.97;5109170;28;20463;-42
2023/10/02 10:09:51;;;;;;;58.77;54.53;;;;;;;22.03;100.00;101771.59;5058545;28;20459;-40
2023/10/02 10:13:25;;;;;;;60.80;56.57;;;;;;;21.87;100.00;101763.38;5076607;27;20549;-40
2023/10/02 10:16:30;;;;;;;61.30;56.80;;;;;;;21.86;100.00;101764.47;5088277;28;20437;-42
2023/10/02 10:21:57;;;;;;;62.90;58.23;;;;;;;22.03;100.00;101768.88;5049374;28;20431;-38
2023/10/02 10:24:56;;;;;;;57.47;53.47;;;;;;;22.27;100.00;101772.22;5052729;28;20470;-38
2023/10/02 10:27:58;;;;;;;60.63;56.17;;;;;;;22.45;100.00;101761.06;5052556;28;20438;-39
2023/10/02 10:30:44;;;;;;;55.97;52.17;;;;;;;22.52;100.00;101755.44;4963653;28;20455;-39
2023/10/02 10:33:40;;;;;;;53.53;49.67;;;;;;;22.68;100.00;101760.03;4960885;28;20489;-38
2023/10/02 10:36:41;;;;;;;54.20;49.70;;;;;;;22.80;100.00;101762.63;4961670;28;20478;-40
2023/10/02 10:39:54;;;;;;;53.40;49.27;;;;;;;22.93;100.00;101763.09;4932152;29;20464;-40
2023/10/02 10:42:23;;;;;;;53.80;49.70;;;;;;;23.14;100.00;101754.09;4928076;28;20451;-39
2023/10/02 10:44:55;;;;;;;54.10;49.87;;;;;;;23.18;100.00;101756.31;4972034;28;20444;-43
2023/10/02 10:47:42;;;;;;;54.93;50.60;;;;;;;23.25;100.00;101759.63;4972756;28;20865;-39
2023/10/02 10:50:26;;;;;;;52.83;49.13;;;;;;;23.24;100.00;101753.34;4971577;28;20462;-42
2023/10/02 10:53:02;;;;;;;53.07;49.03;;;;;;;23.06;100.00;101750.97;4972159;28;21017;-39
2023/10/02 10:55:33;;;;;;;53.83;49.00;;;;;;;22.96;100.00;101750.88;4972129;28;20446;-38
2023/10/02 10:58:02;;;;;;;52.37;48.23;;;;;;;22.88;100.00;101743.19;4970463;28;20470;-41
2023/10/02 11:00:39;;;;;;;54.77;50.17;;;;;;;22.92;100.00;101747.00;4989363;28;20452;-39
2023/10/02 11:03:14;;;;;;;56.53;51.73;;;;;;;22.83;100.00;101740.38;5026479;28;20428;-41
2023/10/02 11:05:43;;;;;;;52.20;48.30;;;;;;;22.82;100.00;101755.88;5031931;28;20444;-42
2023/10/02 11:08:24;;;;;;;58.93;54.27;;;;;;;22.81;100.00;101756.97;5029870;28;20477;-37
2023/10/02 11:11:11;;;;;;;55.10;50.60;;;;;;;22.80;100.00;101751.75;5033086;28;20479;-39
2023/10/02 11:13:53;;;;;;;56.03;51.53;;;;;;;22.72;100.00;101753.03;5033130;28;20444;-40
2023/10/02 11:16:23;;;;;;;53.30;49.57;;;;;;;22.85;100.00;101747.19;5028255;28;20877;-43
2023/10/02 11:19:13;;;;;;;56.43;51.60;;;;;;;22.96;100.00;101749.00;5025359;28;20472;-39
2023/10/02 11:22:02;;;;;;;54.80;50.50;;;;;;;22.85;100.00;101733.59;5018247;28;20460;-40
2023/10/02 11:24:30;;;;;;;52.77;48.93;;;;;;;23.03;100.00;101746.88;5005552;28;20439;-40
2023/10/02 11:27:05;;;;;;;53.87;49.60;;;;;;;23.11;100.00;101751.88;5004232;28;20461;-38
2023/10/02 11:29:40;;;;;;;55.50;51.10;;;;;;;23.19;100.00;101752.47;5010890;28;20459;-41
2023/10/02 11:32:22;;;;;;;55.70;51.47;;;;;;;23.34;100.00;101755.38;5016866;28;21199;-40
2023/10/02 11:34:58;;;;;;;53.90;50.23;;;;;;;23.28;100.00;101746.34;5013406;28;20504;-40
2023/10/02 11:37:28;;;;;;;52.07;48.10;;;;;;;23.36;100.00;101751.31;5015706;28;20440;-41
2023/10/02 11:39:57;;;;;;;52.30;47.80;;;;;;;23.33;100.00;101746.38;5002535;28;20852;-41
2023/10/02 11:42:24;;;;;;;51.33;46.90;;;;;;;23.32;100.00;101752.91;5015691;28;20435;-41
2023/10/02 11:44:54;;;;;;;51.17;46.87;;;;;;;23.27;100.00;101738.41;5001429;28;20456;-39
2023/10/02 11:47:23;;;;;;;48.13;44.40;;;;;;;23.11;100.00;101734.72;5012197;28;20444;-39
2023/10/02 11:49:52;;;;;;;46.93;43.27;;;;;;;22.95;100.00;101725.56;5014898;28;20555;-43
2023/10/02 11:52:20;;;;;;;47.63;43.73;;;;;;;22.99;100.00;101720.44;5005887;28;20470;-40
2023/10/02 11:54:47;;;;;;;51.43;47.30;;;;;;;23.09;100.00;101720.53;5010612;28;20523;-41
2023/10/02 11:57:15;;;;;;;46.60;43.20;;;;;;;23.22;100.00;101724.75;5017987;28;20433;-38
2023/10/02 11:59:47;;;;;;;49.10;45.30;;;;;;;23.36;100.00;101717.81;5006630;28;20464;-46
2023/10/02 12:02:16;;;;;;;47.00;43.30;;;;;;;23.36;100.00;101721.38;5009460;28;20438;-41
2023/10/02 12:04:44;;;;;;;49.40;45.80;;;;;;;23.43;100.00;101729.38;5011861;28;20437;-41
2023/10/02 12:07:16;;;;;;;47.20;43.57;;;;;;;23.38;100.00;101726.56;5018455;28;20528;-38
2023/10/02 12:09:47;;;;;;;50.13;46.20;;;;;;;23.31;100.00;101729.50;5004472;28;20465;-44
2023/10/02 12:12:16;;;;;;;49.03;45.53;;;;;;;23.58;100.00;101726.78;5016244;28;20472;-41
2023/10/02 12:14:43;;;;;;;45.43;42.03;;;;;;;23.62;100.00;101722.47;5016560;28;20448;-41
2023/10/02 12:17:14;;;;;;;47.93;44.07;;;;;;;23.54;100.00;101721.03;5010836;28;20881;-40